createdAt,value
2023-02-02T00:04:33.983Z,22.27
2023-02-02T00:09:35.736Z,17.37
2023-02-02T00:14:37.379Z,20.00
2023-02-02T00:19:39.001Z,23.08
2023-02-02T00:24:40.632Z,24.75
2023-02-02T00:29:42.308Z,25.58
2023-02-02T00:34:43.977Z,23.73
2023-02-02T00:39:45.589Z,20.55
2023-02-02T00:45:05.953Z,22.67
2023-02-02T00:50:08.417Z,17.08
2023-02-02T00:55:11.540Z,23.15
2023-02-02T01:00:16.909Z,21.70
2023-02-02T01:05:18.994Z,21.50
2023-02-02T01:10:20.625Z,20.35
2023-02-02T01:15:22.492Z,21.67
2023-02-02T01:20:24.672Z,24.75
2023-02-02T01:25:27.455Z,25.52
2023-02-02T01:30:29.050Z,20.95
2023-02-02T01:35:30.705Z,17.23
2023-02-02T01:40:32.326Z,19.90
2023-02-02T01:45:34.074Z,17.52
2023-02-02T01:50:35.989Z,20.98
2023-02-02T01:55:39.802Z,21.98
2023-02-02T02:00:45.052Z,22.33
2023-02-02T02:05:54.950Z,20.85
2023-02-02T02:10:57.319Z,26.48
2023-02-02T02:16:20.699Z,26.63
2023-02-02T02:21:56.155Z,21.27
2023-02-02T02:27:04.045Z,20.00
2023-02-02T02:32:24.841Z,20.85
2023-02-02T02:37:45.387Z,21.98
2023-02-02T02:42:51.768Z,23.52
2023-02-02T02:47:54.650Z,22.52
2023-02-02T02:53:02.474Z,21.05
2023-02-02T02:58:06.872Z,23.60
2023-02-02T03:03:27.357Z,20.60
2023-02-02T03:08:37.868Z,20.23
2023-02-02T03:13:41.046Z,22.38
2023-02-02T03:18:42.898Z,25.92
2023-02-02T03:23:44.541Z,19.90
2023-02-02T03:28:46.369Z,19.77
2023-02-02T03:33:48.007Z,25.13
2023-02-02T03:38:49.722Z,20.70
2023-02-02T03:43:51.337Z,22.55
2023-02-02T03:48:53.061Z,20.02
2023-02-02T03:53:54.748Z,26.42
2023-02-02T03:58:56.412Z,18.88
2023-02-02T04:03:58.962Z,18.70
2023-02-02T04:09:00.627Z,22.08
2023-02-02T04:14:02.272Z,19.60
2023-02-02T04:19:04.695Z,24.73
2023-02-02T04:24:07.734Z,23.08
2023-02-02T04:29:09.618Z,19.27
2023-02-02T04:34:11.316Z,18.35
2023-02-02T04:39:13.002Z,20.02
2023-02-02T04:44:18.513Z,23.98
2023-02-02T04:49:20.821Z,24.00
2023-02-02T04:54:22.451Z,21.98
2023-02-02T04:59:24.205Z,26.17
2023-02-02T05:04:26.040Z,24.15
2023-02-02T05:09:27.771Z,29.67
2023-02-02T05:14:29.424Z,26.23
2023-02-02T05:19:31.076Z,23.58
2023-02-02T05:24:32.790Z,31.42
2023-02-02T05:29:34.430Z,25.85
2023-02-02T05:34:36.081Z,26.52
2023-02-02T05:39:37.811Z,24.02
2023-02-02T05:44:39.476Z,24.95
2023-02-02T05:49:41.245Z,32.22
2023-02-02T05:54:43.014Z,27.40
2023-02-02T05:59:44.723Z,28.48
2023-02-02T06:04:46.540Z,26.80
2023-02-02T06:09:48.200Z,26.75
2023-02-02T06:14:49.960Z,25.08
2023-02-02T06:19:51.708Z,23.55
2023-02-02T06:24:53.509Z,27.15
2023-02-02T06:29:55.123Z,25.98
2023-02-02T06:34:57.174Z,22.40
2023-02-02T06:39:58.864Z,19.70
2023-02-02T06:45:07.638Z,18.23
2023-02-02T06:50:10.007Z,18.35
2023-02-02T06:55:12.784Z,24.33
2023-02-02T07:00:14.854Z,25.55
2023-02-02T07:05:19.390Z,19.42
2023-02-02T07:11:14.445Z,22.92
2023-02-02T07:15:42.728Z,22.52
2023-02-02T07:20:45.490Z,21.35
2023-02-02T07:26:01.659Z,18.90
2023-02-02T07:31:21.940Z,18.25
2023-02-02T07:36:25.079Z,16.63
2023-02-02T07:41:27.861Z,15.10
2023-02-02T07:46:29.652Z,20.52
2023-02-02T07:51:31.462Z,16.50
2023-02-02T07:56:34.543Z,16.27
2023-02-02T08:01:36.331Z,14.32
2023-02-02T08:06:40.051Z,13.15
2023-02-02T08:11:41.848Z,13.80
2023-02-02T08:16:43.526Z,12.73
2023-02-02T08:21:45.210Z,18.70
2023-02-02T08:26:47.036Z,16.05
2023-02-02T08:31:49.877Z,15.07
2023-02-02T08:36:52.692Z,17.45
2023-02-02T08:41:57.638Z,19.63
2023-02-02T08:46:59.470Z,14.23
2023-02-02T08:52:01.183Z,15.27
2023-02-02T08:57:02.907Z,15.82
2023-02-02T09:02:05.714Z,15.27
2023-02-02T09:07:07.441Z,11.32
2023-02-02T09:12:09.192Z,16.92
2023-02-02T09:17:10.855Z,15.13
2023-02-02T09:22:12.574Z,19.83
2023-02-02T09:27:14.297Z,16.05
2023-02-02T09:32:15.958Z,15.82
2023-02-02T09:37:19.740Z,19.40
2023-02-02T09:42:34.820Z,17.20
2023-02-02T09:47:45.475Z,13.75
2023-02-02T09:53:18.161Z,18.23
2023-02-02T09:58:27.610Z,18.08
2023-02-02T10:03:42.959Z,13.82
2023-02-02T10:08:51.668Z,22.00
2023-02-02T10:14:00.040Z,19.05
2023-02-02T10:19:11.942Z,14.57
2023-02-02T10:24:21.197Z,13.00
2023-02-02T10:29:23.501Z,13.45
2023-02-02T10:34:51.249Z,13.57
2023-02-02T10:40:14.796Z,14.73
2023-02-02T10:45:20.413Z,15.02
2023-02-02T10:50:22.576Z,13.63
2023-02-02T10:55:43.196Z,10.80
2023-02-02T11:00:52.653Z,17.73
2023-02-02T11:06:13.998Z,14.80
2023-02-02T11:11:29.436Z,14.10
2023-02-02T11:16:42.573Z,14.82
2023-02-02T11:21:54.603Z,15.32
2023-02-02T11:27:17.990Z,14.55
2023-02-02T11:32:27.430Z,10.43
2023-02-02T11:37:32.124Z,13.38
2023-02-02T11:42:34.165Z,11.85
2023-02-02T11:47:36.021Z,14.52
2023-02-02T11:52:40.307Z,13.13
2023-02-02T12:03:27.153Z,11.27
2023-02-02T12:08:29.965Z,13.48
2023-02-02T12:13:57.377Z,12.40
2023-02-02T12:19:25.318Z,11.32
2023-02-02T12:24:38.043Z,10.85
2023-02-02T12:29:51.846Z,12.90
2023-02-02T12:34:56.476Z,15.87
2023-02-02T12:40:27.227Z,15.00
2023-02-02T12:45:47.566Z,13.63
2023-02-02T12:51:08.788Z,12.90
2023-02-02T12:56:28.018Z,12.43
2023-02-02T13:01:51.030Z,12.27
2023-02-02T13:07:07.119Z,12.40
2023-02-02T13:12:12.319Z,13.05
2023-02-02T13:17:33.991Z,12.40
2023-02-02T13:22:41.683Z,14.68
2023-02-02T13:27:44.395Z,12.30
2023-02-02T13:32:48.196Z,9.15
2023-02-02T13:38:05.635Z,10.95
2023-02-02T13:43:39.138Z,11.40
2023-02-02T13:48:52.713Z,7.90
2023-02-02T13:54:10.823Z,10.20
2023-02-02T13:59:36.927Z,9.38
2023-02-02T14:04:39.209Z,13.68
2023-02-02T14:09:42.120Z,11.07
2023-02-02T14:14:46.876Z,10.70
2023-02-02T14:19:57.284Z,9.50
2023-02-02T14:24:59.090Z,8.95
2023-02-02T14:30:01.473Z,11.43
2023-02-02T14:35:09.995Z,9.98
2023-02-02T14:40:20.301Z,7.82
2023-02-02T14:45:32.791Z,8.18
2023-02-02T14:50:53.106Z,9.32
2023-02-02T14:56:05.716Z,8.43
2023-02-02T15:01:17.172Z,11.95
2023-02-02T15:06:25.688Z,9.43
2023-02-02T15:11:31.946Z,10.55
2023-02-02T15:16:36.798Z,7.65
2023-02-02T15:21:40.607Z,10.95
2023-02-02T15:26:43.580Z,10.18
2023-02-02T15:31:54.404Z,6.95
2023-02-02T15:37:02.990Z,9.85
2023-02-02T15:42:32.819Z,7.90
2023-02-02T15:47:37.717Z,5.05
2023-02-02T15:52:47.455Z,8.63
